Wetterdaten: aktuell Dienstag, 19.06.2018 18:10
Datum Zeit Temperatur Luftfeuchte Luftdruck Regen Windgeschw. Windrichtung Windrichtung Taupunkt
19.06.2018 18:10 21,9 C 34 % 1021 hPa 0,0 l/m 0,6 km/h O-NO67.5 60 5,3 C
19.06.2018 17:11 22,1 C 35 % 1021 hPa 0,0 l/m 0,0 km/h SW67.5 225 5,9 C
19.06.2018 16:11 22,3 C 32 % 1021 hPa 0,0 l/m 0,6 km/h NO22.5 55 4,8 C
19.06.2018 15:11 21,6 C 32 % 1021 hPa 0,0 l/m 17,7 km/h NO67.5 50 4,2 C
19.06.2018 14:10 22,5 C 33 % 1021 hPa 0,0 l/m 0,5 km/h SO 125 5,4 C
19.06.2018 13:11 22,2 C 32 % 1022 hPa 0,0 l/m 0,7 km/h O 95 4,7 C
19.06.2018 12:11 21,6 C 35 % 1022 hPa 0,0 l/m 0,6 km/h NO22.5 55 5,5 C
19.06.2018 11:11 21,9 C 32 % 1022 hPa 0,0 l/m 0,3 km/h O-SO45 105 4,5 C
19.06.2018 10:10 20,8 C 37 % 1022 hPa 0,0 l/m 0,0 km/h O45 95 5,6 C
19.06.2018 09:10 19,6 C 43 % 1022 hPa 0,0 l/m 0,2 km/h O45 90 6,7 C
19.06.2018 08:11 18,5 C 46 % 1021 hPa 0,0 l/m 0,0 km/h S 170 6,7 C
19.06.2018 07:11 21,5 C 41 % 1021 hPa 0,0 l/m 0,0 km/h SO 135 7,7 C
19.06.2018 06:11 16,2 C 53 % 1021 hPa 0,0 l/m 0,0 km/h W-NW 300 6,6 C
19.06.2018 05:10 11,2 C 60 % 1021 hPa 0,0 l/m 0,0 km/h W-NW 300 3,7 C
19.06.2018 04:10 11,8 C 59 % 1020 hPa 0,0 l/m 0,0 km/h W-NW 300 4,1 C
19.06.2018 03:11 12,1 C 58 % 1020 hPa 0,0 l/m 0,0 km/h W-NW 300 4,1 C
19.06.2018 02:11 12,4 C 58 % 1020 hPa 0,0 l/m 0,0 km/h W-NW 300 4,4 C
19.06.2018 01:11 12,3 C 56 % 1021 hPa 0,0 l/m 0,0 km/h W-NW 300 3,8 C
19.06.2018 00:10 12,2 C 54 % 1021 hPa 0,0 l/m 0,0 km/h W-NW 300 3,2 C
18.06.2018 23:11 12,9 C 56 % 1021 hPa 0,0 l/m 0,0 km/h W-NW 300 4,3 C
18.06.2018 22:11 13,7 C 55 % 1020 hPa 0,0 l/m 0,0 km/h W-NW 285 4,8 C
18.06.2018 21:11 15,9 C 47 % 1020 hPa 0,0 l/m 0,0 km/h W 280 4,6 C
18.06.2018 20:10 17,7 C 43 % 1019 hPa 0,0 l/m 0,0 km/h N 10 5,0 C
18.06.2018 19:11 19,0 C 37 % 1019 hPa 0,0 l/m 0,0 km/h N-NO 25 4,0 C
18.06.2018 19:01 19,2 C 36 % 1019 hPa 0,0 l/m 0,2 km/h O-NO22.5 75 3,8 C
_ Min-Zeit 05:05 14:15 19:01 - 19:06 - - 00:10
Minimum _ 11,1 C 30 % 1019 hPa - 0,0 km/h - - 3,2 C
_ Max-Zeit 14:25 05:31 08:31 19:01 13:30 - - 06:51
Maximum _ 22,7 C 62 % 1022 hPa 0,0 l/m 23,5 km/h
N-NO
- - 8,5 C
Durchschnitt _ 17,5 C 45 % 1021 hPa #0,0 l/m 1,1 km/h NO - 5,0 C